PWSweather.com
Personal Weather Stations
Station Observations
KOHCLEVE171
Cleveland, OH

Cleveland, OH

Lat: 41.48646164, Lon: -81.46408081

Elevation: 1059

Station Type:

High Low Average
Temperature 34.0°F1.1°C 30.7°F-0.7°C 32.1°F0.1°C
Dew Point 31.1°F-0.5°C 25.3°F-3.7°C 27.4°F-2.6°C
Winds 8.7 mph 14.0 kmh 0.4 mph 0.6 kmh 3.0 mph SW4.8 kmh SW
Wind Gusts 18.6 mph29.9 kmh 1.3 mph2.1 kmh 5.0 mph8.0 kmh
Humidity 91% 77% 83%
Pressure 30.13 in1020.3 mb 29.99 in1015.6 mb -
Precipitation 0.01 in0.3 mm - -
Hour Temp Dew Point Humidity Winds Wind Gusts Pressure Precip Precip Rate Daily Precip Total
12:04 AM 34.9°F1.6°C 32.5°F0.3°C 91% 4.7 mph NW7.6 kmh NW 11.0 mph17.7 kmh 29.98 in1015.2 mb 0.00 in0.0 mm 0.00 in0.0 mm 0.01 in0.3 mm
12:09 AM 34.9°F1.6°C 32.5°F0.3°C 91% 3.6 mph NW5.8 kmh NW 11.9 mph19.2 kmh 29.98 in1015.2 mb 0.00 in0.0 mm 0.00 in0.0 mm 0.01 in0.3 mm
12:14 AM 34.9°F1.6°C 32.2°F0.1°C 90% 3.6 mph WSW5.8 kmh WSW 7.8 mph12.6 kmh 29.98 in1015.2 mb 0.00 in0.0 mm 0.00 in0.0 mm 0.01 in0.3 mm
12:19 AM 34.7°F1.5°C 32.0°F0.0°C 90% 5.1 mph WSW8.2 kmh WSW 11.2 mph18.0 kmh 29.98 in1015.2 mb 0.00 in0.0 mm 0.00 in0.0 mm 0.01 in0.3 mm
12:24 AM 34.5°F1.4°C 31.8°F-0.1°C 90% 8.5 mph NNW13.7 kmh NNW 18.8 mph30.3 kmh 30.00 in1015.9 mb 0.00 in0.0 mm 0.00 in0.0 mm 0.01 in0.3 mm
12:29 AM 34.5°F1.4°C 31.8°F-0.1°C 90% 4.5 mph W7.2 kmh W 8.7 mph14.0 kmh 29.98 in1015.2 mb 0.00 in0.0 mm 0.00 in0.0 mm 0.01 in0.3 mm
12:34 AM 34.5°F1.4°C 31.8°F-0.1°C 90% 4.0 mph W6.4 kmh W 9.4 mph15.1 kmh 29.98 in1015.2 mb 0.00 in0.0 mm 0.00 in0.0 mm 0.01 in0.3 mm
12:39 AM 34.3°F1.3°C 31.6°F-0.2°C 90% 4.5 mph W7.2 kmh W 10.5 mph16.9 kmh 29.98 in1015.2 mb 0.00 in0.0 mm 0.00 in0.0 mm 0.01 in0.3 mm
12:44 AM 34.3°F1.3°C 31.5°F-0.3°C 89% 1.8 mph NNE2.9 kmh NNE 4.7 mph7.6 kmh 29.99 in1015.6 mb 0.00 in0.0 mm 0.00 in0.0 mm 0.01 in0.3 mm
12:49 AM 34.2°F1.2°C 30.9°F-0.6°C 88% 6.3 mph WNW10.1 kmh WNW 16.1 mph25.9 kmh 29.99 in1015.6 mb 0.00 in0.0 mm 0.00 in0.0 mm 0.01 in0.3 mm
12:54 AM 34.0°F1.1°C 30.7°F-0.7°C 88% 1.8 mph SW2.9 kmh SW 4.7 mph7.6 kmh 30.00 in1015.9 mb 0.00 in0.0 mm 0.00 in0.0 mm 0.01 in0.3 mm
01:04 AM 34.0°F1.1°C 31.1°F-0.5°C 89% 2.9 mph N4.7 kmh N 6.5 mph10.5 kmh 30.00 in1015.9 mb 0.00 in0.0 mm 0.00 in0.0 mm 0.00 in0.0 mm
01:09 AM 33.8°F1.0°C 30.9°F-0.6°C 89% 5.6 mph SW9.0 kmh SW 10.3 mph16.6 kmh 30.00 in1015.9 mb 0.00 in0.0 mm 0.00 in0.0 mm 0.00 in0.0 mm
01:14 AM 33.6°F0.9°C 30.7°F-0.7°C 89% 5.6 mph WNW9.0 kmh WNW 15.2 mph24.5 kmh 30.00 in1015.9 mb 0.00 in0.0 mm 0.00 in0.0 mm 0.00 in0.0 mm
01:19 AM 33.6°F0.9°C 30.9°F-0.6°C 90% 2.5 mph WSW4.0 kmh WSW 7.8 mph12.6 kmh 30.00 in1015.9 mb 0.00 in0.0 mm 0.00 in0.0 mm 0.00 in0.0 mm
01:24 AM 33.3°F0.7°C 30.6°F-0.8°C 90% 3.1 mph NW5.0 kmh NW 5.8 mph9.3 kmh 30.00 in1015.9 mb 0.00 in0.0 mm 0.00 in0.0 mm 0.00 in0.0 mm
01:29 AM 33.3°F0.7°C 30.6°F-0.8°C 90% 4.0 mph WNW6.4 kmh WNW 9.8 mph15.8 kmh 30.01 in1016.3 mb 0.00 in0.0 mm 0.00 in0.0 mm 0.00 in0.0 mm
01:34 AM 33.1°F0.6°C 30.2°F-1.0°C 89% 4.5 mph W7.2 kmh W 11.0 mph17.7 kmh 30.01 in1016.3 mb 0.00 in0.0 mm 0.00 in0.0 mm 0.00 in0.0 mm
01:39 AM 32.9°F0.5°C 29.7°F-1.3°C 88% 3.8 mph NNW6.1 kmh NNW 10.5 mph16.9 kmh 30.01 in1016.3 mb 0.00 in0.0 mm 0.00 in0.0 mm 0.00 in0.0 mm
01:44 AM 32.9°F0.5°C 30.0°F-1.1°C 89% 4.5 mph WNW7.2 kmh WNW 10.5 mph16.9 kmh 30.02 in1016.6 mb 0.00 in0.0 mm 0.00 in0.0 mm 0.00 in0.0 mm
01:49 AM 32.9°F0.5°C 29.7°F-1.3°C 88% 4.3 mph NW6.9 kmh NW 8.3 mph13.4 kmh 30.01 in1016.3 mb 0.00 in0.0 mm 0.00 in0.0 mm 0.00 in0.0 mm
01:54 AM 32.7°F0.4°C 29.5°F-1.4°C 88% 3.6 mph NW5.8 kmh NW 9.4 mph15.1 kmh 30.02 in1016.6 mb 0.00 in0.0 mm 0.00 in0.0 mm 0.00 in0.0 mm
01:59 AM 32.9°F0.5°C 29.1°F-1.6°C 86% 4.0 mph NNW6.4 kmh NNW 10.3 mph16.6 kmh 30.02 in1016.6 mb 0.00 in0.0 mm 0.00 in0.0 mm 0.00 in0.0 mm
02:04 AM 32.7°F0.4°C 28.9°F-1.7°C 86% 4.9 mph NW7.9 kmh NW 7.2 mph11.6 kmh 30.02 in1016.6 mb 0.00 in0.0 mm 0.00 in0.0 mm 0.00 in0.0 mm
02:09 AM 32.5°F0.3°C 28.8°F-1.8°C 86% 3.1 mph WNW5.0 kmh WNW 6.5 mph10.5 kmh 30.02 in1016.6 mb 0.00 in0.0 mm 0.00 in0.0 mm 0.00 in0.0 mm
02:14 AM 32.5°F0.3°C 28.8°F-1.8°C 86% 4.0 mph NW6.4 kmh NW 11.9 mph19.2 kmh 30.02 in1016.6 mb 0.00 in0.0 mm 0.00 in0.0 mm 0.00 in0.0 mm
02:19 AM 32.5°F0.3°C 29.3°F-1.5°C 88% 2.9 mph NNW4.7 kmh NNW 5.8 mph9.3 kmh 30.02 in1016.6 mb 0.00 in0.0 mm 0.00 in0.0 mm 0.00 in0.0 mm
02:24 AM 32.4°F0.2°C 29.1°F-1.6°C 88% 3.1 mph NNW5.0 kmh NNW 6.5 mph10.5 kmh 30.03 in1016.9 mb 0.00 in0.0 mm 0.00 in0.0 mm 0.00 in0.0 mm
02:29 AM 32.4°F0.2°C 29.5°F-1.4°C 89% 2.5 mph NNW4.0 kmh NNW 5.4 mph8.7 kmh 30.03 in1016.9 mb 0.00 in0.0 mm 0.00 in0.0 mm 0.00 in0.0 mm
02:34 AM 32.4°F0.2°C 29.5°F-1.4°C 89% 2.2 mph N3.5 kmh N 4.9 mph7.9 kmh 30.02 in1016.6 mb 0.00 in0.0 mm 0.00 in0.0 mm 0.00 in0.0 mm
02:39 AM 32.2°F0.1°C 29.7°F-1.3°C 90% 2.2 mph NNW3.5 kmh NNW 5.1 mph8.2 kmh 30.03 in1016.9 mb 0.00 in0.0 mm 0.00 in0.0 mm 0.00 in0.0 mm
02:44 AM 32.0°F0.0°C 29.5°F-1.4°C 90% 1.6 mph WNW2.6 kmh WNW 3.8 mph6.1 kmh 30.03 in1016.9 mb 0.00 in0.0 mm 0.00 in0.0 mm 0.00 in0.0 mm
02:49 AM 32.0°F0.0°C 29.5°F-1.4°C 90% 2.0 mph W3.2 kmh W 5.8 mph9.3 kmh 30.03 in1016.9 mb 0.00 in0.0 mm 0.00 in0.0 mm 0.00 in0.0 mm
02:54 AM 32.0°F0.0°C 29.5°F-1.4°C 90% 6.0 mph W9.7 kmh W 15.2 mph24.5 kmh 30.03 in1016.9 mb 0.00 in0.0 mm 0.00 in0.0 mm 0.00 in0.0 mm
02:59 AM 31.8°F-0.1°C 29.5°F-1.4°C 91% 4.3 mph WNW6.9 kmh WNW 10.1 mph16.3 kmh 30.03 in1016.9 mb 0.00 in0.0 mm 0.00 in0.0 mm 0.00 in0.0 mm
03:04 AM 31.8°F-0.1°C 29.3°F-1.5°C 90% 3.4 mph W5.5 kmh W 7.2 mph11.6 kmh 30.03 in1016.9 mb 0.00 in0.0 mm 0.00 in0.0 mm 0.01 in0.3 mm
03:09 AM 31.8°F-0.1°C 28.9°F-1.7°C 89% 4.5 mph WNW7.2 kmh WNW 18.6 mph29.9 kmh 30.04 in1017.3 mb 0.00 in0.0 mm 0.00 in0.0 mm 0.01 in0.3 mm
03:14 AM 31.8°F-0.1°C 28.9°F-1.7°C 89% 2.5 mph SW4.0 kmh SW 4.9 mph7.9 kmh 30.03 in1016.9 mb 0.00 in0.0 mm 0.00 in0.0 mm 0.01 in0.3 mm
03:19 AM 31.8°F-0.1°C 28.8°F-1.8°C 88% 4.3 mph NW6.9 kmh NW 10.1 mph16.3 kmh 30.03 in1016.9 mb 0.00 in0.0 mm 0.00 in0.0 mm 0.01 in0.3 mm
03:24 AM 31.8°F-0.1°C 28.0°F-2.2°C 86% 2.0 mph N3.2 kmh N 3.6 mph5.8 kmh 30.04 in1017.3 mb 0.00 in0.0 mm 0.00 in0.0 mm 0.01 in0.3 mm
03:29 AM 32.0°F0.0°C 28.8°F-1.8°C 88% 1.3 mph NW2.1 kmh NW 3.8 mph6.1 kmh 30.05 in1017.6 mb 0.00 in0.0 mm 0.00 in0.0 mm 0.01 in0.3 mm
03:34 AM 32.0°F0.0°C 28.2°F-2.1°C 86% 2.0 mph WSW3.2 kmh WSW 8.9 mph14.3 kmh 30.05 in1017.6 mb 0.00 in0.0 mm 0.00 in0.0 mm 0.01 in0.3 mm
03:39 AM 31.8°F-0.1°C 28.0°F-2.2°C 86% 5.8 mph SSW9.3 kmh SSW 11.6 mph18.7 kmh 30.05 in1017.6 mb 0.00 in0.0 mm 0.00 in0.0 mm 0.01 in0.3 mm
03:44 AM 31.8°F-0.1°C 28.0°F-2.2°C 86% 3.6 mph NW5.8 kmh NW 9.2 mph14.8 kmh 30.06 in1017.9 mb 0.00 in0.0 mm 0.00 in0.0 mm 0.01 in0.3 mm
03:48 AM 31.8°F-0.1°C 28.0°F-2.2°C 86% 2.2 mph N3.5 kmh N 3.6 mph5.8 kmh 30.06 in1017.9 mb 0.00 in0.0 mm 0.00 in0.0 mm 0.01 in0.3 mm
03:53 AM 31.8°F-0.1°C 27.9°F-2.3°C 85% 2.9 mph N4.7 kmh N 4.5 mph7.2 kmh 30.05 in1017.6 mb 0.00 in0.0 mm 0.00 in0.0 mm 0.01 in0.3 mm
03:58 AM 31.8°F-0.1°C 27.9°F-2.3°C 85% 1.8 mph N2.9 kmh N 2.9 mph4.7 kmh 30.06 in1017.9 mb 0.00 in0.0 mm 0.00 in0.0 mm 0.01 in0.3 mm
04:03 AM 31.8°F-0.1°C 27.9°F-2.3°C 85% 1.8 mph NW2.9 kmh NW 3.6 mph5.8 kmh 30.06 in1017.9 mb 0.00 in0.0 mm 0.00 in0.0 mm 0.01 in0.3 mm
04:08 AM 31.8°F-0.1°C 27.9°F-2.3°C 85% 1.8 mph N2.9 kmh N 4.0 mph6.4 kmh 30.06 in1017.9 mb 0.00 in0.0 mm 0.00 in0.0 mm 0.01 in0.3 mm
04:13 AM 31.8°F-0.1°C 27.9°F-2.3°C 85% 2.2 mph W3.5 kmh W 4.5 mph7.2 kmh 30.06 in1017.9 mb 0.00 in0.0 mm 0.00 in0.0 mm 0.01 in0.3 mm
04:18 AM 32.0°F0.0°C 28.0°F-2.2°C 85% 2.7 mph NW4.3 kmh NW 6.9 mph11.1 kmh 30.05 in1017.6 mb 0.00 in0.0 mm 0.00 in0.0 mm 0.01 in0.3 mm
04:23 AM 32.0°F0.0°C 28.0°F-2.2°C 85% 2.5 mph NNW4.0 kmh NNW 6.7 mph10.8 kmh 30.05 in1017.6 mb 0.00 in0.0 mm 0.00 in0.0 mm 0.01 in0.3 mm
04:28 AM 32.0°F0.0°C 28.0°F-2.2°C 85% 2.7 mph W4.3 kmh W 5.6 mph9.0 kmh 30.06 in1017.9 mb 0.00 in0.0 mm 0.00 in0.0 mm 0.01 in0.3 mm
04:33 AM 31.8°F-0.1°C 27.9°F-2.3°C 85% 2.5 mph N4.0 kmh N 4.3 mph6.9 kmh 30.05 in1017.6 mb 0.00 in0.0 mm 0.00 in0.0 mm 0.01 in0.3 mm
04:38 AM 31.8°F-0.1°C 27.9°F-2.3°C 85% 1.6 mph NW2.6 kmh NW 3.4 mph5.5 kmh 30.04 in1017.3 mb 0.00 in0.0 mm 0.00 in0.0 mm 0.01 in0.3 mm
04:43 AM 31.8°F-0.1°C 27.9°F-2.3°C 85% 3.4 mph WNW5.5 kmh WNW 6.5 mph10.5 kmh 30.05 in1017.6 mb 0.00 in0.0 mm 0.00 in0.0 mm 0.01 in0.3 mm
04:48 AM 31.8°F-0.1°C 27.5°F-2.5°C 84% 3.6 mph W5.8 kmh W 7.6 mph12.2 kmh 30.05 in1017.6 mb 0.00 in0.0 mm 0.00 in0.0 mm 0.01 in0.3 mm
04:53 AM 31.8°F-0.1°C 27.9°F-2.3°C 85% 2.2 mph S3.5 kmh S 5.1 mph8.2 kmh 30.05 in1017.6 mb 0.00 in0.0 mm 0.00 in0.0 mm 0.01 in0.3 mm
04:58 AM 31.8°F-0.1°C 27.9°F-2.3°C 85% 4.3 mph S6.9 kmh S 8.5 mph13.7 kmh 30.05 in1017.6 mb 0.00 in0.0 mm 0.00 in0.0 mm 0.01 in0.3 mm
05:03 AM 32.0°F0.0°C 28.0°F-2.2°C 85% 0.7 mph S1.1 kmh S 1.8 mph2.9 kmh 30.06 in1017.9 mb 0.00 in0.0 mm 0.00 in0.0 mm 0.01 in0.3 mm
05:08 AM 31.8°F-0.1°C 27.5°F-2.5°C 84% 2.9 mph N4.7 kmh N 8.1 mph13.0 kmh 30.05 in1017.6 mb 0.00 in0.0 mm 0.00 in0.0 mm 0.01 in0.3 mm
05:13 AM 31.6°F-0.2°C 27.3°F-2.6°C 84% 2.0 mph NE3.2 kmh NE 4.9 mph7.9 kmh 30.05 in1017.6 mb 0.00 in0.0 mm 0.00 in0.0 mm 0.01 in0.3 mm
05:18 AM 31.8°F-0.1°C 27.9°F-2.3°C 85% 2.2 mph SW3.5 kmh SW 6.3 mph10.1 kmh 30.05 in1017.6 mb 0.00 in0.0 mm 0.00 in0.0 mm 0.01 in0.3 mm
05:23 AM 31.6°F-0.2°C 27.3°F-2.6°C 84% 2.5 mph WSW4.0 kmh WSW 4.5 mph7.2 kmh 30.04 in1017.3 mb 0.00 in0.0 mm 0.00 in0.0 mm 0.01 in0.3 mm
05:28 AM 31.6°F-0.2°C 27.3°F-2.6°C 84% 2.0 mph SSW3.2 kmh SSW 3.8 mph6.1 kmh 30.04 in1017.3 mb 0.00 in0.0 mm 0.00 in0.0 mm 0.01 in0.3 mm
05:33 AM 31.6°F-0.2°C 27.3°F-2.6°C 84% 2.0 mph WSW3.2 kmh WSW 4.9 mph7.9 kmh 30.04 in1017.3 mb 0.00 in0.0 mm 0.00 in0.0 mm 0.01 in0.3 mm
05:38 AM 31.8°F-0.1°C 27.5°F-2.5°C 84% 2.7 mph NNW4.3 kmh NNW 5.1 mph8.2 kmh 30.05 in1017.6 mb 0.00 in0.0 mm 0.00 in0.0 mm 0.01 in0.3 mm
05:43 AM 31.6°F-0.2°C 26.8°F-2.9°C 82% 2.7 mph NNW4.3 kmh NNW 6.3 mph10.1 kmh 30.05 in1017.6 mb 0.00 in0.0 mm 0.00 in0.0 mm 0.01 in0.3 mm
05:48 AM 31.6°F-0.2°C 27.3°F-2.6°C 84% 2.2 mph NNE3.5 kmh NNE 3.6 mph5.8 kmh 30.04 in1017.3 mb 0.00 in0.0 mm 0.00 in0.0 mm 0.01 in0.3 mm
05:53 AM 31.6°F-0.2°C 27.3°F-2.6°C 84% 1.8 mph SW2.9 kmh SW 4.0 mph6.4 kmh 30.04 in1017.3 mb 0.00 in0.0 mm 0.00 in0.0 mm 0.01 in0.3 mm
05:58 AM 31.6°F-0.2°C 26.8°F-2.9°C 82% 1.8 mph WSW2.9 kmh WSW 3.4 mph5.5 kmh 30.04 in1017.3 mb 0.00 in0.0 mm 0.00 in0.0 mm 0.01 in0.3 mm
06:03 AM 31.6°F-0.2°C 26.8°F-2.9°C 82% 2.2 mph SW3.5 kmh SW 4.7 mph7.6 kmh 30.04 in1017.3 mb 0.00 in0.0 mm 0.00 in0.0 mm 0.01 in0.3 mm
06:08 AM 31.6°F-0.2°C 26.8°F-2.9°C 82% 2.7 mph SSW4.3 kmh SSW 5.6 mph9.0 kmh 30.04 in1017.3 mb 0.00 in0.0 mm 0.00 in0.0 mm 0.01 in0.3 mm
06:13 AM 31.6°F-0.2°C 26.4°F-3.1°C 81% 1.6 mph NW2.6 kmh NW 3.6 mph5.8 kmh 30.04 in1017.3 mb 0.00 in0.0 mm 0.00 in0.0 mm 0.01 in0.3 mm
06:18 AM 31.5°F-0.3°C 26.2°F-3.2°C 81% 0.9 mph N1.4 kmh N 1.6 mph2.6 kmh 30.04 in1017.3 mb 0.00 in0.0 mm 0.00 in0.0 mm 0.01 in0.3 mm
06:24 AM 31.5°F-0.3°C 26.2°F-3.2°C 81% 2.2 mph NW3.5 kmh NW 5.6 mph9.0 kmh 30.04 in1017.3 mb 0.00 in0.0 mm 0.00 in0.0 mm 0.01 in0.3 mm
06:28 AM 31.5°F-0.3°C 26.6°F-3.0°C 82% 1.1 mph SE1.8 kmh SE 2.0 mph3.2 kmh 30.04 in1017.3 mb 0.00 in0.0 mm 0.00 in0.0 mm 0.01 in0.3 mm
06:33 AM 31.5°F-0.3°C 26.2°F-3.2°C 81% 0.4 mph 0.6 kmh 1.3 mph2.1 kmh 30.04 in1017.3 mb 0.00 in0.0 mm 0.00 in0.0 mm 0.01 in0.3 mm
06:38 AM 31.5°F-0.3°C 26.6°F-3.0°C 82% 1.8 mph SW2.9 kmh SW 5.6 mph9.0 kmh 30.04 in1017.3 mb 0.00 in0.0 mm 0.00 in0.0 mm 0.01 in0.3 mm
06:43 AM 31.6°F-0.2°C 26.8°F-2.9°C 82% 2.9 mph S4.7 kmh S 5.1 mph8.2 kmh 30.04 in1017.3 mb 0.00 in0.0 mm 0.00 in0.0 mm 0.01 in0.3 mm
06:49 AM 31.5°F-0.3°C 26.2°F-3.2°C 81% 2.7 mph SW4.3 kmh SW 4.7 mph7.6 kmh 30.04 in1017.3 mb 0.00 in0.0 mm 0.00 in0.0 mm 0.01 in0.3 mm
06:53 AM 31.5°F-0.3°C 26.6°F-3.0°C 82% 0.7 mph WSW1.1 kmh WSW 2.7 mph4.3 kmh 30.05 in1017.6 mb 0.00 in0.0 mm 0.00 in0.0 mm 0.01 in0.3 mm
06:58 AM 31.5°F-0.3°C 26.2°F-3.2°C 81% 2.2 mph SW3.5 kmh SW 4.7 mph7.6 kmh 30.05 in1017.6 mb 0.00 in0.0 mm 0.00 in0.0 mm 0.01 in0.3 mm
07:04 AM 31.6°F-0.2°C 26.8°F-2.9°C 82% 3.1 mph S5.0 kmh S 5.6 mph9.0 kmh 30.05 in1017.6 mb 0.00 in0.0 mm 0.00 in0.0 mm 0.01 in0.3 mm
07:08 AM 31.6°F-0.2°C 26.4°F-3.1°C 81% 2.0 mph SW3.2 kmh SW 3.8 mph6.1 kmh 30.05 in1017.6 mb 0.00 in0.0 mm 0.00 in0.0 mm 0.01 in0.3 mm
07:13 AM 31.5°F-0.3°C 26.2°F-3.2°C 81% 1.3 mph SW2.1 kmh SW 3.1 mph5.0 kmh 30.06 in1017.9 mb 0.00 in0.0 mm 0.00 in0.0 mm 0.01 in0.3 mm
07:19 AM 31.5°F-0.3°C 26.2°F-3.2°C 81% 2.9 mph S4.7 kmh S 4.7 mph7.6 kmh 30.06 in1017.9 mb 0.00 in0.0 mm 0.00 in0.0 mm 0.01 in0.3 mm
07:24 AM 31.3°F-0.4°C 26.1°F-3.3°C 81% 2.0 mph NNW3.2 kmh NNW 4.7 mph7.6 kmh 30.07 in1018.3 mb 0.00 in0.0 mm 0.00 in0.0 mm 0.01 in0.3 mm
07:29 AM 31.3°F-0.4°C 26.1°F-3.3°C 81% 1.6 mph WSW2.6 kmh WSW 4.0 mph6.4 kmh 30.07 in1018.3 mb 0.00 in0.0 mm 0.00 in0.0 mm 0.01 in0.3 mm
07:34 AM 31.3°F-0.4°C 26.1°F-3.3°C 81% 1.8 mph SE2.9 kmh SE 4.3 mph6.9 kmh 30.08 in1018.6 mb 0.00 in0.0 mm 0.00 in0.0 mm 0.01 in0.3 mm
07:38 AM 31.3°F-0.4°C 26.1°F-3.3°C 81% 3.1 mph SSW5.0 kmh SSW 6.0 mph9.7 kmh 30.08 in1018.6 mb 0.00 in0.0 mm 0.00 in0.0 mm 0.01 in0.3 mm
07:44 AM 31.1°F-0.5°C 25.9°F-3.4°C 81% 3.6 mph S5.8 kmh S 6.9 mph11.1 kmh 30.09 in1019.0 mb 0.00 in0.0 mm 0.00 in0.0 mm 0.01 in0.3 mm
07:49 AM 31.1°F-0.5°C 25.9°F-3.4°C 81% 2.7 mph NW4.3 kmh NW 5.4 mph8.7 kmh 30.08 in1018.6 mb 0.00 in0.0 mm 0.00 in0.0 mm 0.01 in0.3 mm
07:54 AM 31.1°F-0.5°C 25.9°F-3.4°C 81% 0.7 mph NW1.1 kmh NW 2.2 mph3.5 kmh 30.09 in1019.0 mb 0.00 in0.0 mm 0.00 in0.0 mm 0.01 in0.3 mm
07:59 AM 31.1°F-0.5°C 25.9°F-3.4°C 81% 3.4 mph W5.5 kmh W 7.6 mph12.2 kmh 30.09 in1019.0 mb 0.00 in0.0 mm 0.00 in0.0 mm 0.01 in0.3 mm
08:04 AM 30.9°F-0.6°C 25.5°F-3.6°C 80% 1.8 mph NW2.9 kmh NW 4.9 mph7.9 kmh 30.10 in1019.3 mb 0.00 in0.0 mm 0.00 in0.0 mm 0.01 in0.3 mm
08:09 AM 30.9°F-0.6°C 25.5°F-3.6°C 80% 0.9 mph W1.4 kmh W 2.7 mph4.3 kmh 30.10 in1019.3 mb 0.00 in0.0 mm 0.00 in0.0 mm 0.01 in0.3 mm
08:14 AM 30.9°F-0.6°C 25.7°F-3.5°C 81% 1.3 mph SW2.1 kmh SW 2.9 mph4.7 kmh 30.10 in1019.3 mb 0.00 in0.0 mm 0.00 in0.0 mm 0.01 in0.3 mm
08:19 AM 31.1°F-0.5°C 25.9°F-3.4°C 81% 1.3 mph NW2.1 kmh NW 4.7 mph7.6 kmh 30.10 in1019.3 mb 0.00 in0.0 mm 0.00 in0.0 mm 0.01 in0.3 mm
08:24 AM 30.9°F-0.6°C 25.5°F-3.6°C 80% 2.5 mph W4.0 kmh W 5.1 mph8.2 kmh 30.10 in1019.3 mb 0.00 in0.0 mm 0.00 in0.0 mm 0.01 in0.3 mm
08:29 AM 30.9°F-0.6°C 25.5°F-3.6°C 80% 3.4 mph S5.5 kmh S 5.6 mph9.0 kmh 30.10 in1019.3 mb 0.00 in0.0 mm 0.00 in0.0 mm 0.01 in0.3 mm
08:34 AM 30.7°F-0.7°C 25.3°F-3.7°C 80% 3.6 mph NW5.8 kmh NW 7.6 mph12.2 kmh 30.11 in1019.6 mb 0.00 in0.0 mm 0.00 in0.0 mm 0.01 in0.3 mm
08:39 AM 30.7°F-0.7°C 25.3°F-3.7°C 80% 3.1 mph SSW5.0 kmh SSW 6.7 mph10.8 kmh 30.11 in1019.6 mb 0.00 in0.0 mm 0.00 in0.0 mm 0.01 in0.3 mm
08:44 AM 30.7°F-0.7°C 25.3°F-3.7°C 80% 1.6 mph E2.6 kmh E 2.7 mph4.3 kmh 30.11 in1019.6 mb 0.00 in0.0 mm 0.00 in0.0 mm 0.01 in0.3 mm
08:49 AM 30.7°F-0.7°C 25.3°F-3.7°C 80% 2.2 mph S3.5 kmh S 3.6 mph5.8 kmh 30.11 in1019.6 mb 0.00 in0.0 mm 0.00 in0.0 mm 0.01 in0.3 mm
08:54 AM 30.9°F-0.6°C 25.5°F-3.6°C 80% 4.9 mph WSW7.9 kmh WSW 13.4 mph21.6 kmh 30.11 in1019.6 mb 0.00 in0.0 mm 0.00 in0.0 mm 0.01 in0.3 mm
08:59 AM 30.7°F-0.7°C 25.3°F-3.7°C 80% 1.1 mph NW1.8 kmh NW 3.6 mph5.8 kmh 30.11 in1019.6 mb 0.00 in0.0 mm 0.00 in0.0 mm 0.01 in0.3 mm
09:04 AM 30.7°F-0.7°C 25.3°F-3.7°C 80% 2.9 mph S4.7 kmh S 5.1 mph8.2 kmh 30.11 in1019.6 mb 0.00 in0.0 mm 0.00 in0.0 mm 0.01 in0.3 mm
09:09 AM 30.9°F-0.6°C 25.5°F-3.6°C 80% 2.5 mph NW4.0 kmh NW 5.6 mph9.0 kmh 30.11 in1019.6 mb 0.00 in0.0 mm 0.00 in0.0 mm 0.01 in0.3 mm
09:14 AM 30.9°F-0.6°C 25.5°F-3.6°C 80% 1.8 mph SSW2.9 kmh SSW 3.4 mph5.5 kmh 30.11 in1019.6 mb 0.00 in0.0 mm 0.00 in0.0 mm 0.01 in0.3 mm
09:19 AM 30.9°F-0.6°C 25.5°F-3.6°C 80% 2.7 mph S4.3 kmh S 4.5 mph7.2 kmh 30.11 in1019.6 mb 0.00 in0.0 mm 0.00 in0.0 mm 0.01 in0.3 mm
09:24 AM 30.9°F-0.6°C 25.5°F-3.6°C 80% 4.0 mph S6.4 kmh S 5.6 mph9.0 kmh 30.11 in1019.6 mb 0.00 in0.0 mm 0.00 in0.0 mm 0.01 in0.3 mm
09:29 AM 30.7°F-0.7°C 25.3°F-3.7°C 80% 1.6 mph SW2.6 kmh SW 3.4 mph5.5 kmh 30.11 in1019.6 mb 0.00 in0.0 mm 0.00 in0.0 mm 0.01 in0.3 mm
09:34 AM 30.9°F-0.6°C 25.5°F-3.6°C 80% 2.7 mph SSW4.3 kmh SSW 4.0 mph6.4 kmh 30.11 in1019.6 mb 0.00 in0.0 mm 0.00 in0.0 mm 0.01 in0.3 mm
09:39 AM 30.9°F-0.6°C 25.5°F-3.6°C 80% 1.6 mph NE2.6 kmh NE 4.0 mph6.4 kmh 30.11 in1019.6 mb 0.00 in0.0 mm 0.00 in0.0 mm 0.01 in0.3 mm
09:44 AM 30.9°F-0.6°C 25.5°F-3.6°C 80% 2.0 mph W3.2 kmh W 3.4 mph5.5 kmh 30.11 in1019.6 mb 0.00 in0.0 mm 0.00 in0.0 mm 0.01 in0.3 mm
09:49 AM 31.1°F-0.5°C 25.7°F-3.5°C 80% 1.6 mph W2.6 kmh W 3.6 mph5.8 kmh 30.11 in1019.6 mb 0.00 in0.0 mm 0.00 in0.0 mm 0.01 in0.3 mm
09:54 AM 31.1°F-0.5°C 25.7°F-3.5°C 80% 1.6 mph SSW2.6 kmh SSW 3.6 mph5.8 kmh 30.12 in1020.0 mb 0.00 in0.0 mm 0.00 in0.0 mm 0.01 in0.3 mm
09:59 AM 31.1°F-0.5°C 25.7°F-3.5°C 80% 1.8 mph SSW2.9 kmh SSW 4.5 mph7.2 kmh 30.12 in1020.0 mb 0.00 in0.0 mm 0.00 in0.0 mm 0.01 in0.3 mm
10:04 AM 31.1°F-0.5°C 25.7°F-3.5°C 80% 2.5 mph WSW4.0 kmh WSW 4.0 mph6.4 kmh 30.12 in1020.0 mb 0.00 in0.0 mm 0.00 in0.0 mm 0.01 in0.3 mm
10:09 AM 30.9°F-0.6°C 25.5°F-3.6°C 80% 1.3 mph ESE2.1 kmh ESE 2.5 mph4.0 kmh 30.12 in1020.0 mb 0.00 in0.0 mm 0.00 in0.0 mm 0.01 in0.3 mm
10:14 AM 31.1°F-0.5°C 25.7°F-3.5°C 80% 2.2 mph SW3.5 kmh SW 6.9 mph11.1 kmh 30.12 in1020.0 mb 0.00 in0.0 mm 0.00 in0.0 mm 0.01 in0.3 mm
10:19 AM 31.1°F-0.5°C 25.7°F-3.5°C 80% 1.6 mph SW2.6 kmh SW 2.2 mph3.5 kmh 30.12 in1020.0 mb 0.00 in0.0 mm 0.00 in0.0 mm 0.01 in0.3 mm
10:24 AM 31.1°F-0.5°C 25.7°F-3.5°C 80% 2.7 mph W4.3 kmh W 6.0 mph9.7 kmh 30.12 in1020.0 mb 0.00 in0.0 mm 0.00 in0.0 mm 0.01 in0.3 mm
10:29 AM 31.1°F-0.5°C 25.7°F-3.5°C 80% 1.8 mph S2.9 kmh S 3.6 mph5.8 kmh 30.12 in1020.0 mb 0.00 in0.0 mm 0.00 in0.0 mm 0.01 in0.3 mm
10:34 AM 31.1°F-0.5°C 25.7°F-3.5°C 80% 1.1 mph NW1.8 kmh NW 3.1 mph5.0 kmh 30.11 in1019.6 mb 0.00 in0.0 mm 0.00 in0.0 mm 0.01 in0.3 mm
10:39 AM 31.3°F-0.4°C 25.9°F-3.4°C 80% 2.9 mph NW4.7 kmh NW 5.4 mph8.7 kmh 30.12 in1020.0 mb 0.00 in0.0 mm 0.00 in0.0 mm 0.01 in0.3 mm
10:44 AM 31.1°F-0.5°C 25.7°F-3.5°C 80% 2.2 mph NNW3.5 kmh NNW 4.3 mph6.9 kmh 30.12 in1020.0 mb 0.00 in0.0 mm 0.00 in0.0 mm 0.01 in0.3 mm
10:49 AM 31.1°F-0.5°C 25.7°F-3.5°C 80% 1.6 mph N2.6 kmh N 4.3 mph6.9 kmh 30.12 in1020.0 mb 0.00 in0.0 mm 0.00 in0.0 mm 0.01 in0.3 mm
10:54 AM 31.3°F-0.4°C 25.9°F-3.4°C 80% 1.3 mph W2.1 kmh W 3.6 mph5.8 kmh 30.12 in1020.0 mb 0.00 in0.0 mm 0.00 in0.0 mm 0.01 in0.3 mm
10:59 AM 31.3°F-0.4°C 25.9°F-3.4°C 80% 1.1 mph SE1.8 kmh SE 4.7 mph7.6 kmh 30.12 in1020.0 mb 0.00 in0.0 mm 0.00 in0.0 mm 0.01 in0.3 mm
11:04 AM 31.5°F-0.3°C 26.2°F-3.2°C 81% 1.8 mph N2.9 kmh N 3.1 mph5.0 kmh 30.12 in1020.0 mb 0.00 in0.0 mm 0.00 in0.0 mm 0.01 in0.3 mm
11:09 AM 31.5°F-0.3°C 26.2°F-3.2°C 81% 1.8 mph S2.9 kmh S 2.5 mph4.0 kmh 30.12 in1020.0 mb 0.00 in0.0 mm 0.00 in0.0 mm 0.01 in0.3 mm
11:14 AM 31.5°F-0.3°C 26.2°F-3.2°C 81% 4.0 mph S6.4 kmh S 6.5 mph10.5 kmh 30.11 in1019.6 mb 0.00 in0.0 mm 0.00 in0.0 mm 0.01 in0.3 mm
11:19 AM 31.3°F-0.4°C 26.1°F-3.3°C 81% 4.3 mph SSW6.9 kmh SSW 4.9 mph7.9 kmh 30.12 in1020.0 mb 0.00 in0.0 mm 0.00 in0.0 mm 0.01 in0.3 mm
11:24 AM 31.3°F-0.4°C 26.1°F-3.3°C 81% 1.3 mph ESE2.1 kmh ESE 3.6 mph5.8 kmh 30.12 in1020.0 mb 0.00 in0.0 mm 0.00 in0.0 mm 0.01 in0.3 mm
11:29 AM 31.5°F-0.3°C 26.1°F-3.3°C 80% 0.7 mph ESE1.1 kmh ESE 2.0 mph3.2 kmh 30.12 in1020.0 mb 0.00 in0.0 mm 0.00 in0.0 mm 0.01 in0.3 mm
11:34 AM 31.5°F-0.3°C 26.1°F-3.3°C 80% 3.1 mph SW5.0 kmh SW 5.8 mph9.3 kmh 30.13 in1020.3 mb 0.00 in0.0 mm 0.00 in0.0 mm 0.01 in0.3 mm
11:39 AM 31.8°F-0.1°C 26.4°F-3.1°C 80% 4.7 mph SSW7.6 kmh SSW 9.2 mph14.8 kmh 30.13 in1020.3 mb 0.00 in0.0 mm 0.00 in0.0 mm 0.01 in0.3 mm
11:44 AM 31.6°F-0.2°C 25.9°F-3.4°C 79% 2.7 mph S4.3 kmh S 5.6 mph9.0 kmh 30.13 in1020.3 mb 0.00 in0.0 mm 0.00 in0.0 mm 0.01 in0.3 mm
11:49 AM 31.5°F-0.3°C 25.7°F-3.5°C 79% 4.0 mph S6.4 kmh S 6.9 mph11.1 kmh 30.13 in1020.3 mb 0.00 in0.0 mm 0.00 in0.0 mm 0.01 in0.3 mm
11:54 AM 31.5°F-0.3°C 25.7°F-3.5°C 79% 1.1 mph S1.8 kmh S 2.2 mph3.5 kmh 30.13 in1020.3 mb 0.00 in0.0 mm 0.00 in0.0 mm 0.01 in0.3 mm
11:59 AM 31.5°F-0.3°C 26.1°F-3.3°C 80% 2.9 mph SSW4.7 kmh SSW 5.4 mph8.7 kmh 30.13 in1020.3 mb 0.00 in0.0 mm 0.00 in0.0 mm 0.01 in0.3 mm
12:04 PM 31.5°F-0.3°C 25.7°F-3.5°C 79% 4.5 mph SSW7.2 kmh SSW 9.2 mph14.8 kmh 30.13 in1020.3 mb 0.00 in0.0 mm 0.00 in0.0 mm 0.01 in0.3 mm
12:09 PM 31.3°F-0.4°C 25.9°F-3.4°C 80% 1.6 mph N2.6 kmh N 2.0 mph3.2 kmh 30.13 in1020.3 mb 0.00 in0.0 mm 0.00 in0.0 mm 0.01 in0.3 mm
12:14 PM 31.3°F-0.4°C 25.9°F-3.4°C 80% 1.6 mph SE2.6 kmh SE 3.4 mph5.5 kmh 30.13 in1020.3 mb 0.00 in0.0 mm 0.00 in0.0 mm 0.01 in0.3 mm
12:19 PM 31.5°F-0.3°C 26.1°F-3.3°C 80% 2.5 mph W4.0 kmh W 7.2 mph11.6 kmh 30.12 in1020.0 mb 0.00 in0.0 mm 0.00 in0.0 mm 0.01 in0.3 mm
12:24 PM 31.5°F-0.3°C 26.1°F-3.3°C 80% 1.1 mph SSW1.8 kmh SSW 2.5 mph4.0 kmh 30.12 in1020.0 mb 0.00 in0.0 mm 0.00 in0.0 mm 0.01 in0.3 mm
12:29 PM 31.6°F-0.2°C 26.2°F-3.2°C 80% 2.2 mph SSW3.5 kmh SSW 4.0 mph6.4 kmh 30.12 in1020.0 mb 0.00 in0.0 mm 0.00 in0.0 mm 0.01 in0.3 mm
12:34 PM 31.6°F-0.2°C 26.2°F-3.2°C 80% 0.9 mph SSW1.4 kmh SSW 1.6 mph2.6 kmh 30.12 in1020.0 mb 0.00 in0.0 mm 0.00 in0.0 mm 0.01 in0.3 mm
12:39 PM 31.8°F-0.1°C 26.4°F-3.1°C 80% 0.9 mph NNE1.4 kmh NNE 2.2 mph3.5 kmh 30.11 in1019.6 mb 0.00 in0.0 mm 0.00 in0.0 mm 0.01 in0.3 mm
12:44 PM 31.8°F-0.1°C 26.4°F-3.1°C 80% 2.7 mph S4.3 kmh S 4.5 mph7.2 kmh 30.11 in1019.6 mb 0.00 in0.0 mm 0.00 in0.0 mm 0.01 in0.3 mm
12:49 PM 31.8°F-0.1°C 26.4°F-3.1°C 80% 2.5 mph SSW4.0 kmh SSW 4.9 mph7.9 kmh 30.11 in1019.6 mb 0.00 in0.0 mm 0.00 in0.0 mm 0.01 in0.3 mm
12:54 PM 31.8°F-0.1°C 26.6°F-3.0°C 81% 2.5 mph SW4.0 kmh SW 10.3 mph16.6 kmh 30.10 in1019.3 mb 0.00 in0.0 mm 0.00 in0.0 mm 0.01 in0.3 mm
12:59 PM 31.8°F-0.1°C 26.4°F-3.1°C 80% 3.1 mph SSW5.0 kmh SSW 5.4 mph8.7 kmh 30.10 in1019.3 mb 0.00 in0.0 mm 0.00 in0.0 mm 0.01 in0.3 mm
01:04 PM 32.0°F0.0°C 26.8°F-2.9°C 81% 1.3 mph WSW2.1 kmh WSW 2.9 mph4.7 kmh 30.09 in1019.0 mb 0.00 in0.0 mm 0.00 in0.0 mm 0.01 in0.3 mm
01:09 PM 32.0°F0.0°C 26.8°F-2.9°C 81% 2.2 mph WSW3.5 kmh WSW 3.6 mph5.8 kmh 30.09 in1019.0 mb 0.00 in0.0 mm 0.00 in0.0 mm 0.01 in0.3 mm
01:14 PM 32.2°F0.1°C 27.0°F-2.8°C 81% 2.2 mph S3.5 kmh S 3.4 mph5.5 kmh 30.09 in1019.0 mb 0.00 in0.0 mm 0.00 in0.0 mm 0.01 in0.3 mm
01:19 PM 32.2°F0.1°C 27.0°F-2.8°C 81% 2.9 mph SSW4.7 kmh SSW 4.7 mph7.6 kmh 30.08 in1018.6 mb 0.00 in0.0 mm 0.00 in0.0 mm 0.01 in0.3 mm
01:24 PM 32.4°F0.2°C 27.1°F-2.7°C 81% 1.3 mph S2.1 kmh S 2.0 mph3.2 kmh 30.08 in1018.6 mb 0.00 in0.0 mm 0.00 in0.0 mm 0.01 in0.3 mm
01:29 PM 32.2°F0.1°C 26.8°F-2.9°C 80% 1.8 mph S2.9 kmh S 4.7 mph7.6 kmh 30.08 in1018.6 mb 0.00 in0.0 mm 0.00 in0.0 mm 0.01 in0.3 mm
01:34 PM 32.2°F0.1°C 27.0°F-2.8°C 81% 3.4 mph SSW5.5 kmh SSW 5.4 mph8.7 kmh 30.08 in1018.6 mb 0.00 in0.0 mm 0.00 in0.0 mm 0.01 in0.3 mm
01:39 PM 32.4°F0.2°C 27.1°F-2.7°C 81% 1.3 mph SW2.1 kmh SW 3.6 mph5.8 kmh 30.08 in1018.6 mb 0.00 in0.0 mm 0.00 in0.0 mm 0.01 in0.3 mm
01:44 PM 32.4°F0.2°C 27.1°F-2.7°C 81% 2.9 mph SW4.7 kmh SW 5.6 mph9.0 kmh 30.07 in1018.3 mb 0.00 in0.0 mm 0.00 in0.0 mm 0.01 in0.3 mm
01:49 PM 32.4°F0.2°C 27.1°F-2.7°C 81% 4.9 mph S7.9 kmh S 10.7 mph17.2 kmh 30.07 in1018.3 mb 0.00 in0.0 mm 0.00 in0.0 mm 0.01 in0.3 mm
01:54 PM 32.4°F0.2°C 27.1°F-2.7°C 81% 1.8 mph SSW2.9 kmh SSW 3.8 mph6.1 kmh 30.07 in1018.3 mb 0.00 in0.0 mm 0.00 in0.0 mm 0.01 in0.3 mm
01:59 PM 32.5°F0.3°C 27.3°F-2.6°C 81% 1.6 mph S2.6 kmh S 3.4 mph5.5 kmh 30.07 in1018.3 mb 0.00 in0.0 mm 0.00 in0.0 mm 0.01 in0.3 mm
02:04 PM 32.5°F0.3°C 27.3°F-2.6°C 81% 1.8 mph N2.9 kmh N 3.6 mph5.8 kmh 30.07 in1018.3 mb 0.00 in0.0 mm 0.00 in0.0 mm 0.01 in0.3 mm
02:09 PM 32.9°F0.5°C 27.3°F-2.6°C 80% 1.3 mph W2.1 kmh W 3.6 mph5.8 kmh 30.07 in1018.3 mb 0.00 in0.0 mm 0.00 in0.0 mm 0.01 in0.3 mm
02:14 PM 32.9°F0.5°C 27.3°F-2.6°C 80% 2.5 mph S4.0 kmh S 4.0 mph6.4 kmh 30.06 in1017.9 mb 0.00 in0.0 mm 0.00 in0.0 mm 0.01 in0.3 mm
02:19 PM 32.9°F0.5°C 27.3°F-2.6°C 80% 4.7 mph SSW7.6 kmh SSW 8.7 mph14.0 kmh 30.05 in1017.6 mb 0.00 in0.0 mm 0.00 in0.0 mm 0.01 in0.3 mm
02:24 PM 32.9°F0.5°C 27.3°F-2.6°C 80% 3.8 mph S6.1 kmh S 7.4 mph11.9 kmh 30.05 in1017.6 mb 0.00 in0.0 mm 0.00 in0.0 mm 0.01 in0.3 mm
02:29 PM 32.9°F0.5°C 27.7°F-2.4°C 81% 3.6 mph SSW5.8 kmh SSW 4.5 mph7.2 kmh 30.05 in1017.6 mb 0.00 in0.0 mm 0.00 in0.0 mm 0.01 in0.3 mm
02:34 PM 33.1°F0.6°C 27.9°F-2.3°C 81% 2.9 mph S4.7 kmh S 5.4 mph8.7 kmh 30.04 in1017.3 mb 0.00 in0.0 mm 0.00 in0.0 mm 0.01 in0.3 mm
02:39 PM 33.3°F0.7°C 27.7°F-2.4°C 80% 1.8 mph SSW2.9 kmh SSW 5.1 mph8.2 kmh 30.04 in1017.3 mb 0.00 in0.0 mm 0.00 in0.0 mm 0.01 in0.3 mm
02:44 PM 33.3°F0.7°C 27.7°F-2.4°C 80% 3.1 mph SSW5.0 kmh SSW 6.7 mph10.8 kmh 30.04 in1017.3 mb 0.00 in0.0 mm 0.00 in0.0 mm 0.01 in0.3 mm
02:49 PM 33.3°F0.7°C 27.7°F-2.4°C 80% 6.7 mph SSW10.8 kmh SSW 12.3 mph19.8 kmh 30.04 in1017.3 mb 0.00 in0.0 mm 0.00 in0.0 mm 0.01 in0.3 mm
02:54 PM 33.3°F0.7°C 27.5°F-2.5°C 79% 2.0 mph WSW3.2 kmh WSW 3.6 mph5.8 kmh 30.04 in1017.3 mb 0.00 in0.0 mm 0.00 in0.0 mm 0.01 in0.3 mm
02:59 PM 33.1°F0.6°C 27.3°F-2.6°C 79% 1.8 mph W2.9 kmh W 4.0 mph6.4 kmh 30.04 in1017.3 mb 0.00 in0.0 mm 0.00 in0.0 mm 0.01 in0.3 mm
03:04 PM 33.4°F0.8°C 27.7°F-2.4°C 79% 7.6 mph S12.2 kmh S 11.4 mph18.3 kmh 30.03 in1016.9 mb 0.00 in0.0 mm 0.00 in0.0 mm 0.01 in0.3 mm
03:09 PM 33.6°F0.9°C 28.0°F-2.2°C 80% 6.3 mph S10.1 kmh S 12.3 mph19.8 kmh 30.03 in1016.9 mb 0.00 in0.0 mm 0.00 in0.0 mm 0.01 in0.3 mm
03:14 PM 33.3°F0.7°C 27.5°F-2.5°C 79% 5.6 mph S9.0 kmh S 8.7 mph14.0 kmh 30.02 in1016.6 mb 0.00 in0.0 mm 0.00 in0.0 mm 0.01 in0.3 mm
03:19 PM 33.3°F0.7°C 27.7°F-2.4°C 80% 6.3 mph S10.1 kmh S 10.1 mph16.3 kmh 30.02 in1016.6 mb 0.00 in0.0 mm 0.00 in0.0 mm 0.01 in0.3 mm
03:24 PM 33.3°F0.7°C 27.5°F-2.5°C 79% 4.3 mph SSW6.9 kmh SSW 5.6 mph9.0 kmh 30.02 in1016.6 mb 0.00 in0.0 mm 0.00 in0.0 mm 0.01 in0.3 mm
03:29 PM 33.3°F0.7°C 27.7°F-2.4°C 80% 4.7 mph SW7.6 kmh SW 6.0 mph9.7 kmh 30.02 in1016.6 mb 0.00 in0.0 mm 0.00 in0.0 mm 0.01 in0.3 mm
03:34 PM 33.4°F0.8°C 27.9°F-2.3°C 80% 4.9 mph S7.9 kmh S 9.2 mph14.8 kmh 30.02 in1016.6 mb 0.00 in0.0 mm 0.00 in0.0 mm 0.01 in0.3 mm
03:39 PM 33.4°F0.8°C 27.7°F-2.4°C 79% 4.3 mph SSW6.9 kmh SSW 6.7 mph10.8 kmh 30.01 in1016.3 mb 0.00 in0.0 mm 0.00 in0.0 mm 0.01 in0.3 mm
03:44 PM 33.4°F0.8°C 27.7°F-2.4°C 79% 2.9 mph SSW4.7 kmh SSW 7.2 mph11.6 kmh 30.01 in1016.3 mb 0.00 in0.0 mm 0.00 in0.0 mm 0.01 in0.3 mm
03:49 PM 33.3°F0.7°C 27.5°F-2.5°C 79% 5.1 mph SW8.2 kmh SW 7.6 mph12.2 kmh 30.01 in1016.3 mb 0.00 in0.0 mm 0.00 in0.0 mm 0.01 in0.3 mm
03:54 PM 33.4°F0.8°C 27.7°F-2.4°C 79% 5.1 mph SSW8.2 kmh SSW 8.5 mph13.7 kmh 30.02 in1016.6 mb 0.00 in0.0 mm 0.00 in0.0 mm 0.01 in0.3 mm
03:59 PM 33.4°F0.8°C 27.7°F-2.4°C 79% 5.1 mph SSW8.2 kmh SSW 7.6 mph12.2 kmh 30.01 in1016.3 mb 0.00 in0.0 mm 0.00 in0.0 mm 0.01 in0.3 mm
04:04 PM 33.6°F0.9°C 27.9°F-2.3°C 79% 6.0 mph S9.7 kmh S 8.9 mph14.3 kmh 30.01 in1016.3 mb 0.00 in0.0 mm 0.00 in0.0 mm 0.01 in0.3 mm
04:09 PM 33.6°F0.9°C 27.9°F-2.3°C 79% 4.3 mph S6.9 kmh S 6.7 mph10.8 kmh 30.01 in1016.3 mb 0.00 in0.0 mm 0.00 in0.0 mm 0.01 in0.3 mm
04:14 PM 33.8°F1.0°C 28.0°F-2.2°C 79% 2.9 mph SSW4.7 kmh SSW 5.4 mph8.7 kmh 30.01 in1016.3 mb 0.00 in0.0 mm 0.00 in0.0 mm 0.01 in0.3 mm
04:19 PM 33.8°F1.0°C 28.0°F-2.2°C 79% 6.7 mph SSW10.8 kmh SSW 9.4 mph15.1 kmh 30.01 in1016.3 mb 0.00 in0.0 mm 0.00 in0.0 mm 0.01 in0.3 mm
04:24 PM 33.8°F1.0°C 28.0°F-2.2°C 79% 4.3 mph SSW6.9 kmh SSW 6.0 mph9.7 kmh 30.01 in1016.3 mb 0.00 in0.0 mm 0.00 in0.0 mm 0.01 in0.3 mm
04:29 PM 34.0°F1.1°C 28.2°F-2.1°C 79% 2.7 mph SSW4.3 kmh SSW 4.7 mph7.6 kmh 30.01 in1016.3 mb 0.00 in0.0 mm 0.00 in0.0 mm 0.01 in0.3 mm
04:34 PM 33.8°F1.0°C 28.0°F-2.2°C 79% 8.7 mph S14.0 kmh S 13.2 mph21.2 kmh 30.01 in1016.3 mb 0.00 in0.0 mm 0.00 in0.0 mm 0.01 in0.3 mm
04:39 PM 33.8°F1.0°C 28.0°F-2.2°C 79% 5.4 mph S8.7 kmh S 7.8 mph12.6 kmh 30.01 in1016.3 mb 0.00 in0.0 mm 0.00 in0.0 mm 0.01 in0.3 mm
04:44 PM 33.6°F0.9°C 27.9°F-2.3°C 79% 2.9 mph SSW4.7 kmh SSW 4.9 mph7.9 kmh 30.01 in1016.3 mb 0.00 in0.0 mm 0.00 in0.0 mm 0.01 in0.3 mm
04:49 PM 33.6°F0.9°C 27.9°F-2.3°C 79% 6.5 mph SW10.5 kmh SW 9.4 mph15.1 kmh 30.01 in1016.3 mb 0.00 in0.0 mm 0.00 in0.0 mm 0.01 in0.3 mm
04:54 PM 33.8°F1.0°C 28.0°F-2.2°C 79% 4.3 mph SW6.9 kmh SW 6.7 mph10.8 kmh 30.02 in1016.6 mb 0.00 in0.0 mm 0.00 in0.0 mm 0.01 in0.3 mm
04:59 PM 33.8°F1.0°C 28.0°F-2.2°C 79% 4.3 mph S6.9 kmh S 6.9 mph11.1 kmh 30.02 in1016.6 mb 0.00 in0.0 mm 0.00 in0.0 mm 0.01 in0.3 mm
05:04 PM 33.8°F1.0°C 27.3°F-2.6°C 77% 3.1 mph SW5.0 kmh SW 4.0 mph6.4 kmh 30.02 in1016.6 mb 0.00 in0.0 mm 0.00 in0.0 mm 0.01 in0.3 mm
05:09 PM 33.8°F1.0°C 28.0°F-2.2°C 79% 7.4 mph SSW11.9 kmh SSW 9.4 mph15.1 kmh 30.02 in1016.6 mb 0.00 in0.0 mm 0.00 in0.0 mm 0.01 in0.3 mm
05:14 PM 33.8°F1.0°C 28.0°F-2.2°C 79% 2.9 mph S4.7 kmh S 6.7 mph10.8 kmh 30.02 in1016.6 mb 0.00 in0.0 mm 0.00 in0.0 mm 0.01 in0.3 mm
05:19 PM 33.8°F1.0°C 28.0°F-2.2°C 79% 3.4 mph S5.5 kmh S 4.3 mph6.9 kmh 30.02 in1016.6 mb 0.00 in0.0 mm 0.00 in0.0 mm 0.01 in0.3 mm
05:24 PM 34.0°F1.1°C 28.4°F-2.0°C 80% 6.5 mph SSW10.5 kmh SSW 10.7 mph17.2 kmh 30.02 in1016.6 mb 0.00 in0.0 mm 0.00 in0.0 mm 0.01 in0.3 mm
05:29 PM 33.8°F1.0°C 28.0°F-2.2°C 79% 3.8 mph SW6.1 kmh SW 6.3 mph10.1 kmh 30.02 in1016.6 mb 0.00 in0.0 mm 0.00 in0.0 mm 0.01 in0.3 mm
05:34 PM 33.6°F0.9°C 27.9°F-2.3°C 79% 1.3 mph SSW2.1 kmh SSW 3.6 mph5.8 kmh 30.02 in1016.6 mb 0.00 in0.0 mm 0.00 in0.0 mm 0.01 in0.3 mm
05:39 PM 33.6°F0.9°C 28.0°F-2.2°C 80% 2.0 mph SSE3.2 kmh SSE 3.8 mph6.1 kmh 30.02 in1016.6 mb 0.00 in0.0 mm 0.00 in0.0 mm 0.01 in0.3 mm
05:44 PM 33.4°F0.8°C 27.7°F-2.4°C 79% 4.7 mph S7.6 kmh S 6.7 mph10.8 kmh 30.02 in1016.6 mb 0.00 in0.0 mm 0.00 in0.0 mm 0.01 in0.3 mm
05:49 PM 33.4°F0.8°C 27.7°F-2.4°C 79% 3.6 mph SSW5.8 kmh SSW 4.9 mph7.9 kmh 30.02 in1016.6 mb 0.00 in0.0 mm 0.00 in0.0 mm 0.01 in0.3 mm
05:54 PM 33.3°F0.7°C 27.7°F-2.4°C 80% 3.6 mph SW5.8 kmh SW 8.7 mph14.0 kmh 30.02 in1016.6 mb 0.00 in0.0 mm 0.00 in0.0 mm 0.01 in0.3 mm
05:59 PM 33.3°F0.7°C 27.7°F-2.4°C 80% 3.1 mph S5.0 kmh S 4.3 mph6.9 kmh 30.01 in1016.3 mb 0.00 in0.0 mm 0.00 in0.0 mm 0.01 in0.3 mm
06:04 PM 33.1°F0.6°C 27.5°F-2.5°C 80% 3.6 mph S5.8 kmh S 7.6 mph12.2 kmh 30.01 in1016.3 mb 0.00 in0.0 mm 0.00 in0.0 mm 0.01 in0.3 mm
06:09 PM 33.1°F0.6°C 27.5°F-2.5°C 80% 4.9 mph SSW7.9 kmh SSW 9.2 mph14.8 kmh 30.01 in1016.3 mb 0.00 in0.0 mm 0.00 in0.0 mm 0.01 in0.3 mm
06:14 PM 33.1°F0.6°C 27.9°F-2.3°C 81% 4.3 mph SW6.9 kmh SW 6.3 mph10.1 kmh 30.01 in1016.3 mb 0.00 in0.0 mm 0.00 in0.0 mm 0.01 in0.3 mm
06:19 PM 32.9°F0.5°C 27.7°F-2.4°C 81% 2.9 mph SW4.7 kmh SW 4.7 mph7.6 kmh 30.01 in1016.3 mb 0.00 in0.0 mm 0.00 in0.0 mm 0.01 in0.3 mm
06:24 PM 32.9°F0.5°C 27.7°F-2.4°C 81% 4.9 mph S7.9 kmh S 7.6 mph12.2 kmh 30.01 in1016.3 mb 0.00 in0.0 mm 0.00 in0.0 mm 0.01 in0.3 mm
06:29 PM 32.9°F0.5°C 27.7°F-2.4°C 81% 3.6 mph SSW5.8 kmh SSW 4.5 mph7.2 kmh 30.01 in1016.3 mb 0.00 in0.0 mm 0.00 in0.0 mm 0.01 in0.3 mm
06:34 PM 32.9°F0.5°C 27.7°F-2.4°C 81% 2.9 mph S4.7 kmh S 4.0 mph6.4 kmh 30.01 in1016.3 mb 0.00 in0.0 mm 0.00 in0.0 mm 0.01 in0.3 mm
06:39 PM 32.7°F0.4°C 27.5°F-2.5°C 81% 3.6 mph SSW5.8 kmh SSW 5.4 mph8.7 kmh 30.02 in1016.6 mb 0.00 in0.0 mm 0.00 in0.0 mm 0.01 in0.3 mm
06:44 PM 32.7°F0.4°C 27.5°F-2.5°C 81% 4.3 mph SW6.9 kmh SW 6.9 mph11.1 kmh 30.03 in1016.9 mb 0.00 in0.0 mm 0.00 in0.0 mm 0.01 in0.3 mm
06:49 PM 32.7°F0.4°C 27.5°F-2.5°C 81% 2.2 mph SSW3.5 kmh SSW 3.4 mph5.5 kmh 30.03 in1016.9 mb 0.00 in0.0 mm 0.00 in0.0 mm 0.01 in0.3 mm
06:54 PM 32.7°F0.4°C 27.5°F-2.5°C 81% 3.1 mph SW5.0 kmh SW 4.7 mph7.6 kmh 30.03 in1016.9 mb 0.00 in0.0 mm 0.00 in0.0 mm 0.01 in0.3 mm
06:59 PM 32.5°F0.3°C 27.7°F-2.4°C 82% 3.4 mph SSW5.5 kmh SSW 6.3 mph10.1 kmh 30.04 in1017.3 mb 0.00 in0.0 mm 0.00 in0.0 mm 0.01 in0.3 mm
07:04 PM 32.5°F0.3°C 27.7°F-2.4°C 82% 3.1 mph SSW5.0 kmh SSW 4.7 mph7.6 kmh 30.04 in1017.3 mb 0.00 in0.0 mm 0.00 in0.0 mm 0.01 in0.3 mm
07:09 PM 32.4°F0.2°C 27.5°F-2.5°C 82% 2.2 mph W3.5 kmh W 4.5 mph7.2 kmh 30.04 in1017.3 mb 0.00 in0.0 mm 0.00 in0.0 mm 0.01 in0.3 mm
07:14 PM 32.4°F0.2°C 27.5°F-2.5°C 82% 2.0 mph S3.2 kmh S 3.4 mph5.5 kmh 30.05 in1017.6 mb 0.00 in0.0 mm 0.00 in0.0 mm 0.01 in0.3 mm
07:19 PM 32.4°F0.2°C 27.5°F-2.5°C 82% 2.2 mph S3.5 kmh S 3.8 mph6.1 kmh 30.04 in1017.3 mb 0.00 in0.0 mm 0.00 in0.0 mm 0.01 in0.3 mm
07:24 PM 32.2°F0.1°C 27.3°F-2.6°C 82% 2.7 mph S4.3 kmh S 3.8 mph6.1 kmh 30.04 in1017.3 mb 0.00 in0.0 mm 0.00 in0.0 mm 0.01 in0.3 mm
07:29 PM 32.2°F0.1°C 27.3°F-2.6°C 82% 1.8 mph SSW2.9 kmh SSW 2.7 mph4.3 kmh 30.04 in1017.3 mb 0.00 in0.0 mm 0.00 in0.0 mm 0.01 in0.3 mm
07:34 PM 32.2°F0.1°C 27.9°F-2.3°C 84% 2.9 mph S4.7 kmh S 5.6 mph9.0 kmh 30.04 in1017.3 mb 0.00 in0.0 mm 0.00 in0.0 mm 0.01 in0.3 mm
07:39 PM 32.2°F0.1°C 27.9°F-2.3°C 84% 1.8 mph SW2.9 kmh SW 3.4 mph5.5 kmh 30.04 in1017.3 mb 0.00 in0.0 mm 0.00 in0.0 mm 0.01 in0.3 mm
07:44 PM 32.0°F0.0°C 27.1°F-2.7°C 82% 2.2 mph SSW3.5 kmh SSW 3.8 mph6.1 kmh 30.04 in1017.3 mb 0.00 in0.0 mm 0.00 in0.0 mm 0.01 in0.3 mm
07:49 PM 32.0°F0.0°C 27.7°F-2.4°C 84% 2.2 mph S3.5 kmh S 4.7 mph7.6 kmh 30.04 in1017.3 mb 0.00 in0.0 mm 0.00 in0.0 mm 0.01 in0.3 mm
07:54 PM 32.0°F0.0°C 27.7°F-2.4°C 84% 3.8 mph SSW6.1 kmh SSW 6.0 mph9.7 kmh 30.04 in1017.3 mb 0.00 in0.0 mm 0.00 in0.0 mm 0.01 in0.3 mm
07:59 PM 32.0°F0.0°C 27.7°F-2.4°C 84% 2.2 mph SSW3.5 kmh SSW 7.6 mph12.2 kmh 30.04 in1017.3 mb 0.00 in0.0 mm 0.00 in0.0 mm 0.01 in0.3 mm
08:04 PM 32.0°F0.0°C 27.7°F-2.4°C 84% 2.5 mph WSW4.0 kmh WSW 5.8 mph9.3 kmh 30.04 in1017.3 mb 0.00 in0.0 mm 0.00 in0.0 mm 0.01 in0.3 mm
08:09 PM 32.0°F0.0°C 27.7°F-2.4°C 84% 2.0 mph S3.2 kmh S 3.1 mph5.0 kmh 30.04 in1017.3 mb 0.00 in0.0 mm 0.00 in0.0 mm 0.01 in0.3 mm
08:14 PM 32.0°F0.0°C 27.7°F-2.4°C 84% 2.2 mph S3.5 kmh S 4.7 mph7.6 kmh 30.04 in1017.3 mb 0.00 in0.0 mm 0.00 in0.0 mm 0.01 in0.3 mm
08:19 PM 32.0°F0.0°C 27.7°F-2.4°C 84% 3.1 mph SW5.0 kmh SW 4.9 mph7.9 kmh 30.04 in1017.3 mb 0.00 in0.0 mm 0.00 in0.0 mm 0.01 in0.3 mm
08:24 PM 32.0°F0.0°C 27.7°F-2.4°C 84% 2.7 mph S4.3 kmh S 4.7 mph7.6 kmh 30.05 in1017.6 mb 0.00 in0.0 mm 0.00 in0.0 mm 0.01 in0.3 mm
08:29 PM 32.0°F0.0°C 27.7°F-2.4°C 84% 3.6 mph SW5.8 kmh SW 8.5 mph13.7 kmh 30.05 in1017.6 mb 0.00 in0.0 mm 0.00 in0.0 mm 0.01 in0.3 mm
08:34 PM 32.0°F0.0°C 27.7°F-2.4°C 84% 4.0 mph SSW6.4 kmh SSW 6.7 mph10.8 kmh 30.05 in1017.6 mb 0.00 in0.0 mm 0.00 in0.0 mm 0.01 in0.3 mm
08:39 PM 32.0°F0.0°C 27.7°F-2.4°C 84% 0.9 mph WSW1.4 kmh WSW 1.6 mph2.6 kmh 30.06 in1017.9 mb 0.00 in0.0 mm 0.00 in0.0 mm 0.01 in0.3 mm
08:44 PM 32.0°F0.0°C 27.7°F-2.4°C 84% 2.2 mph SW3.5 kmh SW 5.1 mph8.2 kmh 30.06 in1017.9 mb 0.00 in0.0 mm 0.00 in0.0 mm 0.01 in0.3 mm
08:49 PM 32.0°F0.0°C 27.7°F-2.4°C 84% 2.2 mph S3.5 kmh S 4.7 mph7.6 kmh 30.06 in1017.9 mb 0.00 in0.0 mm 0.00 in0.0 mm 0.01 in0.3 mm
08:54 PM 32.0°F0.0°C 27.7°F-2.4°C 84% 1.8 mph SW2.9 kmh SW 2.9 mph4.7 kmh 30.06 in1017.9 mb 0.00 in0.0 mm 0.00 in0.0 mm 0.01 in0.3 mm
08:59 PM 32.0°F0.0°C 27.7°F-2.4°C 84% 1.8 mph S2.9 kmh S 3.1 mph5.0 kmh 30.06 in1017.9 mb 0.00 in0.0 mm 0.00 in0.0 mm 0.01 in0.3 mm
09:04 PM 32.0°F0.0°C 27.7°F-2.4°C 84% 2.5 mph S4.0 kmh S 4.0 mph6.4 kmh 30.06 in1017.9 mb 0.00 in0.0 mm 0.00 in0.0 mm 0.01 in0.3 mm
09:09 PM 32.0°F0.0°C 27.7°F-2.4°C 84% 0.7 mph S1.1 kmh S 1.3 mph2.1 kmh 30.05 in1017.6 mb 0.00 in0.0 mm 0.00 in0.0 mm 0.01 in0.3 mm
09:14 PM 32.0°F0.0°C 28.0°F-2.2°C 85% 0.7 mph WSW1.1 kmh WSW 1.8 mph2.9 kmh 30.05 in1017.6 mb 0.00 in0.0 mm 0.00 in0.0 mm 0.01 in0.3 mm
09:19 PM 32.0°F0.0°C 28.2°F-2.1°C 86% 1.1 mph SSW1.8 kmh SSW 2.9 mph4.7 kmh 30.05 in1017.6 mb 0.00 in0.0 mm 0.00 in0.0 mm 0.01 in0.3 mm
09:24 PM 32.0°F0.0°C 28.2°F-2.1°C 86% 4.0 mph SSW6.4 kmh SSW 6.5 mph10.5 kmh 30.05 in1017.6 mb 0.00 in0.0 mm 0.00 in0.0 mm 0.01 in0.3 mm
09:29 PM 32.2°F0.1°C 28.4°F-2.0°C 86% 4.5 mph SSW7.2 kmh SSW 7.6 mph12.2 kmh 30.05 in1017.6 mb 0.00 in0.0 mm 0.00 in0.0 mm 0.01 in0.3 mm
09:34 PM 32.0°F0.0°C 28.2°F-2.1°C 86% 2.7 mph SW4.3 kmh SW 5.6 mph9.0 kmh 30.05 in1017.6 mb 0.00 in0.0 mm 0.00 in0.0 mm 0.01 in0.3 mm
09:39 PM 32.0°F0.0°C 28.2°F-2.1°C 86% 2.7 mph SSW4.3 kmh SSW 4.9 mph7.9 kmh 30.05 in1017.6 mb 0.00 in0.0 mm 0.00 in0.0 mm 0.01 in0.3 mm
09:44 PM 32.0°F0.0°C 28.6°F-1.9°C 87% 3.4 mph SSW5.5 kmh SSW 4.9 mph7.9 kmh 30.05 in1017.6 mb 0.00 in0.0 mm 0.00 in0.0 mm 0.01 in0.3 mm
09:49 PM 32.0°F0.0°C 28.6°F-1.9°C 87% 3.1 mph SSW5.0 kmh SSW 4.7 mph7.6 kmh 30.05 in1017.6 mb 0.00 in0.0 mm 0.00 in0.0 mm 0.01 in0.3 mm
09:54 PM 32.2°F0.1°C 28.8°F-1.8°C 87% 3.4 mph S5.5 kmh S 6.7 mph10.8 kmh 30.05 in1017.6 mb 0.00 in0.0 mm 0.00 in0.0 mm 0.01 in0.3 mm
09:59 PM 32.2°F0.1°C 28.4°F-2.0°C 86% 2.5 mph SSW4.0 kmh SSW 4.5 mph7.2 kmh 30.05 in1017.6 mb 0.00 in0.0 mm 0.00 in0.0 mm 0.01 in0.3 mm
10:04 PM 32.2°F0.1°C 28.4°F-2.0°C 86% 2.5 mph S4.0 kmh S 3.4 mph5.5 kmh 30.05 in1017.6 mb 0.00 in0.0 mm 0.00 in0.0 mm 0.01 in0.3 mm
10:09 PM 32.2°F0.1°C 28.4°F-2.0°C 86% 1.3 mph S2.1 kmh S 3.4 mph5.5 kmh 30.04 in1017.3 mb 0.00 in0.0 mm 0.00 in0.0 mm 0.01 in0.3 mm
10:14 PM 32.2°F0.1°C 28.4°F-2.0°C 86% 1.1 mph S1.8 kmh S 2.2 mph3.5 kmh 30.05 in1017.6 mb 0.00 in0.0 mm 0.00 in0.0 mm 0.01 in0.3 mm
10:19 PM 32.2°F0.1°C 28.2°F-2.1°C 85% 2.5 mph SSW4.0 kmh SSW 3.8 mph6.1 kmh 30.04 in1017.3 mb 0.00 in0.0 mm 0.00 in0.0 mm 0.01 in0.3 mm
10:24 PM 32.2°F0.1°C 28.2°F-2.1°C 85% 3.4 mph SSW5.5 kmh SSW 4.7 mph7.6 kmh 30.04 in1017.3 mb 0.00 in0.0 mm 0.00 in0.0 mm 0.01 in0.3 mm
10:29 PM 32.0°F0.0°C 28.0°F-2.2°C 85% 1.8 mph S2.9 kmh S 2.7 mph4.3 kmh 30.04 in1017.3 mb 0.00 in0.0 mm 0.00 in0.0 mm 0.01 in0.3 mm
10:34 PM 32.0°F0.0°C 28.2°F-2.1°C 86% 2.5 mph S4.0 kmh S 3.4 mph5.5 kmh 30.04 in1017.3 mb 0.00 in0.0 mm 0.00 in0.0 mm 0.01 in0.3 mm
10:39 PM 31.8°F-0.1°C 27.9°F-2.3°C 85% 1.6 mph S2.6 kmh S 2.7 mph4.3 kmh 30.04 in1017.3 mb 0.00 in0.0 mm 0.00 in0.0 mm 0.01 in0.3 mm
10:44 PM 31.8°F-0.1°C 28.0°F-2.2°C 86% 2.0 mph SSW3.2 kmh SSW 3.1 mph5.0 kmh 30.04 in1017.3 mb 0.00 in0.0 mm 0.00 in0.0 mm 0.01 in0.3 mm
10:49 PM 31.8°F-0.1°C 28.0°F-2.2°C 86% 1.8 mph S2.9 kmh S 2.2 mph3.5 kmh 30.04 in1017.3 mb 0.00 in0.0 mm 0.00 in0.0 mm 0.01 in0.3 mm
10:54 PM 31.6°F-0.2°C 27.9°F-2.3°C 86% 2.0 mph SSW3.2 kmh SSW 2.7 mph4.3 kmh 30.03 in1016.9 mb 0.00 in0.0 mm 0.00 in0.0 mm 0.01 in0.3 mm
10:59 PM 31.6°F-0.2°C 27.9°F-2.3°C 86% 2.0 mph S3.2 kmh S 3.4 mph5.5 kmh 30.03 in1016.9 mb 0.00 in0.0 mm 0.00 in0.0 mm 0.01 in0.3 mm
11:04 PM 31.6°F-0.2°C 27.9°F-2.3°C 86% 2.2 mph SSW3.5 kmh SSW 3.6 mph5.8 kmh 30.03 in1016.9 mb 0.00 in0.0 mm 0.00 in0.0 mm 0.01 in0.3 mm
11:09 PM 31.5°F-0.3°C 27.7°F-2.4°C 86% 3.1 mph S5.0 kmh S 4.3 mph6.9 kmh 30.03 in1016.9 mb 0.00 in0.0 mm 0.00 in0.0 mm 0.01 in0.3 mm
11:14 PM 31.5°F-0.3°C 27.7°F-2.4°C 86% 1.1 mph S1.8 kmh S 2.2 mph3.5 kmh 30.03 in1016.9 mb 0.00 in0.0 mm 0.00 in0.0 mm 0.01 in0.3 mm
11:19 PM 31.5°F-0.3°C 27.7°F-2.4°C 86% 2.5 mph SSW4.0 kmh SSW 3.6 mph5.8 kmh 30.03 in1016.9 mb 0.00 in0.0 mm 0.00 in0.0 mm 0.01 in0.3 mm
11:24 PM 31.5°F-0.3°C 27.7°F-2.4°C 86% 2.9 mph S4.7 kmh S 4.3 mph6.9 kmh 30.03 in1016.9 mb 0.00 in0.0 mm 0.00 in0.0 mm 0.01 in0.3 mm
11:29 PM 31.5°F-0.3°C 28.0°F-2.2°C 87% 2.5 mph S4.0 kmh S 4.5 mph7.2 kmh 30.02 in1016.6 mb 0.00 in0.0 mm 0.00 in0.0 mm 0.01 in0.3 mm
11:34 PM 31.5°F-0.3°C 28.0°F-2.2°C 87% 2.5 mph S4.0 kmh S 3.6 mph5.8 kmh 30.01 in1016.3 mb 0.00 in0.0 mm 0.00 in0.0 mm 0.01 in0.3 mm
11:39 PM 31.5°F-0.3°C 28.0°F-2.2°C 87% 4.5 mph SSW7.2 kmh SSW 6.0 mph9.7 kmh 30.01 in1016.3 mb 0.00 in0.0 mm 0.00 in0.0 mm 0.01 in0.3 mm
11:44 PM 31.5°F-0.3°C 28.0°F-2.2°C 87% 2.0 mph SSE3.2 kmh SSE 2.9 mph4.7 kmh 30.01 in1016.3 mb 0.00 in0.0 mm 0.00 in0.0 mm 0.01 in0.3 mm
11:49 PM 31.5°F-0.3°C 28.0°F-2.2°C 87% 1.8 mph SSE2.9 kmh SSE 2.5 mph4.0 kmh 30.01 in1016.3 mb 0.00 in0.0 mm 0.00 in0.0 mm 0.01 in0.3 mm
11:54 PM 31.3°F-0.4°C 27.9°F-2.3°C 87% 1.3 mph S2.1 kmh S 2.0 mph3.2 kmh 30.00 in1015.9 mb 0.00 in0.0 mm 0.00 in0.0 mm 0.01 in0.3 mm
11:59 PM 31.3°F-0.4°C 27.9°F-2.3°C 87% 1.3 mph SE2.1 kmh SE 2.0 mph3.2 kmh 30.01 in1016.3 mb 0.00 in0.0 mm 0.00 in0.0 mm 0.01 in0.3 mm